Kerby Knob, Kentucky
Current Conditions -  °F | °C
As of 8:55 AM on Wednesday 26 Nov 2014 (Local Time) from KI39 Reporting Station
Clear Clear  
Wind Chill: -1°   Ceiling: Unl
Heat Index: -1°   Visibility: 5mi
Dew Point: -2°   Wind: 3mph
Humidity: 93%   Direction: 290°WNW
Pressure: 30.09"   Gusts: NA
Location:  37.4446°N, 84.0227°W
Report Text: KI39 261355Z AUTO 29003KT 5SM CLR M01/M02 A3009 RMK AO2
Loading
Personal Weather Stations






























Interactive Weather Map New forecast layout! Learn more

10-Day Weather Forecast

Advertisements
Track Severe Weather on mobile